createdAt,value
2023-05-21T00:00:42.962Z,76.60
2023-05-21T00:03:14.043Z,76.58
2023-05-21T00:05:42.537Z,77.01
2023-05-21T00:08:10.970Z,77.28
2023-05-21T00:10:39.124Z,77.24
2023-05-21T00:13:08.958Z,77.39
2023-05-21T00:15:38.524Z,76.79
2023-05-21T00:18:07.227Z,76.74
2023-05-21T00:20:35.556Z,76.43
2023-05-21T00:23:04.102Z,77.34
2023-05-21T00:25:32.556Z,77.59
2023-05-21T00:28:00.740Z,77.76
2023-05-21T00:30:28.924Z,77.28
2023-05-21T00:33:02.503Z,76.51
2023-05-21T00:35:31.224Z,77.46
2023-05-21T00:38:00.611Z,77.67
2023-05-21T00:40:28.795Z,77.48
2023-05-21T00:42:57.246Z,77.55
2023-05-21T00:45:25.521Z,77.93
2023-05-21T00:47:55.565Z,77.54
2023-05-21T00:50:25.987Z,78.04
2023-05-21T00:52:54.370Z,78.02
2023-05-21T00:55:23.042Z,78.18
2023-05-21T00:57:51.519Z,78.09
2023-05-21T01:00:20.833Z,78.66
2023-05-21T01:02:49.939Z,79.21
2023-05-21T01:05:18.369Z,79.72
2023-05-21T01:07:48.310Z,79.23
2023-05-21T01:10:16.883Z,78.71
2023-05-21T01:12:47.306Z,78.57
2023-05-21T01:15:15.898Z,79.42
2023-05-21T01:17:46.075Z,78.81
2023-05-21T01:20:18.163Z,78.97
2023-05-21T01:22:54.339Z,78.41
2023-05-21T01:25:23.246Z,79.19
2023-05-21T01:27:51.856Z,79.53
2023-05-21T01:30:22.476Z,79.04
2023-05-21T01:33:03.520Z,79.68
2023-05-21T01:35:36.865Z,79.96
2023-05-21T01:38:17.503Z,80.63
2023-05-21T01:40:54.256Z,79.26
2023-05-21T01:43:25.171Z,80.18
2023-05-21T01:45:56.874Z,80.88
2023-05-21T01:48:28.238Z,80.44
2023-05-21T01:50:58.759Z,80.71
2023-05-21T01:53:28.476Z,80.97
2023-05-21T01:55:56.659Z,81.43
2023-05-21T01:58:24.900Z,81.53
2023-05-21T02:00:53.152Z,80.91
2023-05-21T02:03:22.038Z,81.27
2023-05-21T02:05:51.947Z,81.00
2023-05-21T02:08:20.601Z,81.62
2023-05-21T02:10:50.229Z,81.96
2023-05-21T02:13:20.369Z,82.15
2023-05-21T02:15:48.586Z,82.22
2023-05-21T02:18:18.416Z,82.63
2023-05-21T02:20:46.555Z,83.49
2023-05-21T02:23:14.750Z,83.18
2023-05-21T02:25:42.913Z,83.35
2023-05-21T02:28:12.812Z,83.80
2023-05-21T02:30:40.933Z,84.10
2023-05-21T02:33:09.681Z,84.37
2023-05-21T02:35:38.976Z,84.92
2023-05-21T02:38:09.160Z,85.24
2023-05-21T02:40:37.328Z,85.29
2023-05-21T02:43:05.443Z,85.10
2023-05-21T02:45:35.120Z,84.83
2023-05-21T02:48:03.539Z,84.78
2023-05-21T02:50:31.682Z,84.52
2023-05-21T02:53:00.217Z,84.71
2023-05-21T02:55:28.372Z,84.91
2023-05-21T02:57:56.564Z,84.95
2023-05-21T03:00:24.716Z,84.98
2023-05-21T03:02:54.444Z,85.19
2023-05-21T03:05:22.963Z,85.26
2023-05-21T03:07:51.339Z,84.61
2023-05-21T03:10:19.506Z,84.68
2023-05-21T03:12:48.118Z,83.98
2023-05-21T03:15:16.762Z,84.70
2023-05-21T03:17:45.043Z,83.78
2023-05-21T03:20:16.504Z,84.35
2023-05-21T03:22:45.777Z,84.83
2023-05-21T03:25:14.329Z,84.88
2023-05-21T03:27:42.664Z,84.88
2023-05-21T03:30:12.176Z,85.45
2023-05-21T03:32:41.364Z,85.14
2023-05-21T03:35:10.074Z,85.28
2023-05-21T03:37:39.628Z,85.01
2023-05-21T03:40:09.672Z,84.96
2023-05-21T03:42:37.827Z,85.23
2023-05-21T03:45:08.468Z,85.17
2023-05-21T03:47:36.945Z,85.03
2023-05-21T03:50:06.293Z,84.25
2023-05-21T03:52:34.564Z,84.58
2023-05-21T03:55:04.097Z,84.00
2023-05-21T03:57:32.353Z,84.66
2023-05-21T04:00:00.666Z,84.47
2023-05-21T04:02:29.105Z,84.56
2023-05-21T04:04:57.400Z,84.28
2023-05-21T04:07:27.165Z,84.19
2023-05-21T04:09:55.386Z,83.71
2023-05-21T04:12:24.869Z,83.02
2023-05-21T04:14:53.043Z,83.06
2023-05-21T04:17:21.688Z,82.33
2023-05-21T04:19:49.846Z,80.90
2023-05-21T04:22:17.988Z,79.49
2023-05-21T04:24:46.457Z,79.54
2023-05-21T04:27:16.584Z,79.51
2023-05-21T04:29:46.159Z,79.70
2023-05-21T04:32:15.241Z,78.91
2023-05-21T04:34:43.454Z,78.31
2023-05-21T04:37:12.046Z,77.59
2023-05-21T04:39:42.364Z,77.50
2023-05-21T04:42:11.055Z,77.37
2023-05-21T04:44:40.269Z,76.89
2023-05-21T04:47:10.310Z,77.14
2023-05-21T04:49:38.487Z,76.18
2023-05-21T04:52:08.244Z,76.21
2023-05-21T04:54:36.557Z,75.98
2023-05-21T04:57:04.814Z,75.69
2023-05-21T04:59:32.990Z,75.22
2023-05-21T05:02:01.305Z,75.03
2023-05-21T05:04:30.777Z,75.20
2023-05-21T05:06:59.000Z,74.45
2023-05-21T05:09:27.157Z,75.05
2023-05-21T05:11:55.456Z,74.94
2023-05-21T05:14:23.621Z,74.59
2023-05-21T05:16:51.811Z,74.30
2023-05-21T05:19:20.057Z,73.82
2023-05-21T05:21:49.544Z,73.93
2023-05-21T05:24:17.754Z,73.85
2023-05-21T05:26:47.033Z,73.29
2023-05-21T05:29:15.251Z,73.01
2023-05-21T05:31:43.382Z,72.31
2023-05-21T05:34:11.539Z,72.02
2023-05-21T05:36:39.709Z,71.18
2023-05-21T05:39:09.280Z,70.53
2023-05-21T05:41:37.388Z,70.04
2023-05-21T05:44:05.935Z,68.83
2023-05-21T05:46:34.126Z,68.14
2023-05-21T05:49:02.301Z,66.55
2023-05-21T05:51:30.990Z,66.19
2023-05-21T05:53:59.184Z,65.10
2023-05-21T05:56:28.613Z,64.52
2023-05-21T05:58:56.736Z,64.25
2023-05-21T06:01:26.186Z,64.12
2023-05-21T06:03:54.480Z,63.76
2023-05-21T06:06:22.574Z,63.56
2023-05-21T06:08:50.738Z,63.42
2023-05-21T06:11:19.109Z,63.64
2023-05-21T06:13:48.778Z,62.27
2023-05-21T06:16:16.928Z,62.41
2023-05-21T06:18:45.125Z,62.34
2023-05-21T06:21:13.238Z,61.85
2023-05-21T06:23:41.691Z,62.07
2023-05-21T06:26:09.801Z,62.06
2023-05-21T06:28:37.891Z,62.21
2023-05-21T06:31:07.399Z,62.23
2023-05-21T06:33:35.573Z,62.25
2023-05-21T06:36:03.816Z,62.16
2023-05-21T06:38:31.889Z,61.67
2023-05-21T06:41:00.004Z,62.00
2023-05-21T06:43:28.727Z,61.68
2023-05-21T06:45:56.889Z,62.63
2023-05-21T06:48:26.314Z,62.58
2023-05-21T06:50:54.410Z,61.66
2023-05-21T06:53:22.475Z,61.52
2023-05-21T06:55:53.572Z,61.75
2023-05-21T06:58:22.244Z,60.75
2023-05-21T07:00:50.417Z,60.59
2023-05-21T07:03:18.572Z,60.53
2023-05-21T07:05:48.398Z,60.51
2023-05-21T07:08:16.777Z,59.78
2023-05-21T07:10:45.036Z,58.88
2023-05-21T07:13:13.333Z,59.43
2023-05-21T07:15:41.380Z,58.64
2023-05-21T07:18:09.499Z,58.32
2023-05-21T07:20:37.602Z,57.73
2023-05-21T07:23:07.093Z,57.85
2023-05-21T07:25:35.605Z,57.53
2023-05-21T07:28:06.423Z,57.70
2023-05-21T07:30:34.796Z,58.18
2023-05-21T07:33:02.973Z,58.35
2023-05-21T07:35:31.095Z,58.24
2023-05-21T07:37:59.224Z,58.20
2023-05-21T07:40:28.699Z,58.26
2023-05-21T07:42:56.850Z,58.42
2023-05-21T07:45:25.144Z,58.30
2023-05-21T07:47:53.323Z,58.25
2023-05-21T07:50:22.275Z,58.36
2023-05-21T07:52:50.559Z,59.04
2023-05-21T07:55:18.799Z,58.52
2023-05-21T07:57:48.196Z,58.23
2023-05-21T08:00:17.157Z,58.33
2023-05-21T08:02:45.506Z,58.12
2023-05-21T08:05:13.778Z,58.32
2023-05-21T08:07:41.847Z,58.44
2023-05-21T08:10:10.602Z,58.56
2023-05-21T08:12:38.699Z,57.67
2023-05-21T08:15:09.608Z,57.61
2023-05-21T08:17:37.685Z,56.98
2023-05-21T08:20:07.259Z,56.32
2023-05-21T08:22:35.348Z,56.70
2023-05-21T08:25:03.458Z,56.96
2023-05-21T08:27:31.537Z,56.60
2023-05-21T08:29:59.540Z,56.42
2023-05-21T08:32:28.957Z,56.05
2023-05-21T08:34:57.587Z,56.51
2023-05-21T08:37:25.738Z,55.91
2023-05-21T08:39:53.778Z,55.73
2023-05-21T08:42:43.390Z,55.25
2023-05-21T08:45:14.617Z,55.14
2023-05-21T08:47:46.515Z,54.63
2023-05-21T08:50:19.134Z,54.65
2023-05-21T08:52:47.984Z,54.70
2023-05-21T08:55:17.525Z,54.80
2023-05-21T08:57:46.133Z,54.57
2023-05-21T09:00:15.670Z,55.15
2023-05-21T09:02:46.383Z,54.95
2023-05-21T09:05:16.386Z,53.58
2023-05-21T09:07:52.608Z,53.75
2023-05-21T09:10:27.919Z,53.46
2023-05-21T09:12:56.328Z,52.99
2023-05-21T09:15:24.760Z,53.16
2023-05-21T09:17:54.660Z,53.70
2023-05-21T09:20:26.835Z,53.37
2023-05-21T09:22:55.688Z,52.84
2023-05-21T09:25:28.127Z,53.42
2023-05-21T09:27:58.029Z,52.79
2023-05-21T09:30:29.566Z,52.74
2023-05-21T09:33:01.558Z,53.03
2023-05-21T09:35:30.331Z,52.99
2023-05-21T09:37:58.414Z,53.15
2023-05-21T09:40:26.494Z,51.95
2023-05-21T09:42:56.177Z,51.45
2023-05-21T09:45:26.814Z,51.42
2023-05-21T09:47:56.760Z,51.23
2023-05-21T09:50:28.633Z,51.31
2023-05-21T09:52:58.169Z,51.34
2023-05-21T09:55:27.879Z,51.47
2023-05-21T09:57:56.089Z,51.49
2023-05-21T10:00:27.472Z,51.30
2023-05-21T10:02:57.915Z,50.47
2023-05-21T10:05:29.084Z,50.77
2023-05-21T10:08:02.966Z,50.40
2023-05-21T10:10:33.582Z,49.15
2023-05-21T10:13:07.601Z,48.75
2023-05-21T10:15:40.066Z,48.74
2023-05-21T10:18:12.022Z,49.12
2023-05-21T10:20:42.681Z,49.40
2023-05-21T10:23:12.876Z,49.17
2023-05-21T10:25:42.798Z,48.38
2023-05-21T10:28:11.647Z,47.74
2023-05-21T10:30:40.267Z,47.31
2023-05-21T10:33:09.228Z,47.19
2023-05-21T10:35:41.662Z,46.69
2023-05-21T10:38:11.023Z,46.13
2023-05-21T10:40:39.277Z,46.05
2023-05-21T10:43:39.854Z,46.12
2023-05-21T10:47:06.700Z,45.74
2023-05-21T10:50:11.228Z,45.74
2023-05-21T10:53:04.302Z,45.59
2023-05-21T10:55:53.538Z,46.22
2023-05-21T10:59:33.092Z,45.40
2023-05-21T11:02:01.901Z,44.54
2023-05-21T11:04:30.508Z,44.70
2023-05-21T11:07:00.533Z,44.25
2023-05-21T11:09:29.974Z,43.92
2023-05-21T11:12:00.930Z,44.04
2023-05-21T11:14:34.863Z,44.07
2023-05-21T11:17:04.706Z,44.09
2023-05-21T11:19:38.463Z,42.48
2023-05-21T11:22:11.824Z,40.72
2023-05-21T11:24:42.674Z,41.82
2023-05-21T11:27:12.368Z,41.37
2023-05-21T11:29:47.124Z,41.43
2023-05-21T11:32:17.274Z,40.48
2023-05-21T11:34:47.771Z,40.23
2023-05-21T11:37:30.955Z,40.02
2023-05-21T11:40:25.935Z,39.40
2023-05-21T11:42:56.089Z,38.98
2023-05-21T11:45:29.388Z,38.88
2023-05-21T11:47:58.354Z,39.47
2023-05-21T11:50:27.292Z,39.30
2023-05-21T11:52:55.972Z,39.25
2023-05-21T11:55:26.166Z,39.18
2023-05-21T11:57:56.432Z,39.70
2023-05-21T12:00:24.656Z,40.19
2023-05-21T12:02:55.792Z,40.57
2023-05-21T12:05:25.057Z,40.60
2023-05-21T12:07:54.585Z,40.73
2023-05-21T12:10:23.996Z,40.82
2023-05-21T12:12:56.598Z,40.76
2023-05-21T12:15:27.884Z,40.48
2023-05-21T12:17:57.824Z,40.38
2023-05-21T12:20:28.905Z,39.89
2023-05-21T12:23:00.080Z,39.83
2023-05-21T12:25:29.811Z,39.83
2023-05-21T12:28:01.339Z,39.62
2023-05-21T12:30:30.685Z,39.83
2023-05-21T12:33:01.974Z,39.69
2023-05-21T12:35:32.099Z,39.36
2023-05-21T12:38:03.210Z,38.74
2023-05-21T12:40:39.431Z,39.20
2023-05-21T12:43:09.800Z,39.16
2023-05-21T12:45:40.549Z,39.00
2023-05-21T12:48:09.440Z,39.11
2023-05-21T12:50:41.748Z,39.20
2023-05-21T12:53:11.913Z,39.39
2023-05-21T12:55:40.405Z,38.80
2023-05-21T12:58:09.857Z,39.13
2023-05-21T13:00:38.603Z,38.96
2023-05-21T13:03:07.390Z,38.94
2023-05-21T13:05:36.068Z,38.91
2023-05-21T13:08:04.518Z,39.30
2023-05-21T13:10:32.651Z,38.88
2023-05-21T13:13:01.629Z,39.31
2023-05-21T13:15:31.100Z,39.42
2023-05-21T13:18:01.110Z,39.21
2023-05-21T13:20:29.782Z,38.84
2023-05-21T13:22:57.891Z,38.87
2023-05-21T13:25:29.491Z,38.99
2023-05-21T13:27:58.770Z,38.63
2023-05-21T13:30:26.979Z,38.84
2023-05-21T13:32:56.637Z,38.29
2023-05-21T13:35:24.800Z,38.37
2023-05-21T13:37:52.897Z,38.49
2023-05-21T13:40:23.719Z,38.83
2023-05-21T13:42:51.900Z,38.37
2023-05-21T13:45:21.778Z,38.00
2023-05-21T13:47:50.286Z,37.69
2023-05-21T13:50:19.784Z,38.20
2023-05-21T13:52:47.863Z,37.98
2023-05-21T13:55:16.714Z,38.68
2023-05-21T13:57:45.637Z,38.46
2023-05-21T14:00:16.010Z,38.64
2023-05-21T14:02:45.206Z,38.66
2023-05-21T14:05:13.935Z,38.42
2023-05-21T14:07:43.453Z,38.64
2023-05-21T14:10:12.643Z,38.61
2023-05-21T14:12:40.891Z,37.40
2023-05-21T14:15:10.643Z,37.45
2023-05-21T14:17:40.157Z,36.70
2023-05-21T14:20:11.068Z,37.14
2023-05-21T14:22:39.699Z,37.09
2023-05-21T14:25:10.307Z,36.56
2023-05-21T14:27:38.771Z,37.03
2023-05-21T14:30:08.544Z,36.51
2023-05-21T14:32:36.722Z,36.56
2023-05-21T14:35:06.590Z,36.58
2023-05-21T14:37:34.725Z,36.53
2023-05-21T14:40:03.107Z,37.07
2023-05-21T14:42:32.577Z,36.61
2023-05-21T14:45:16.975Z,36.73
2023-05-21T14:47:47.548Z,37.39
2023-05-21T14:50:18.422Z,37.59
2023-05-21T14:52:47.047Z,37.70
2023-05-21T14:55:16.739Z,37.44
2023-05-21T14:57:46.398Z,37.22
2023-05-21T15:00:15.311Z,37.63
2023-05-21T15:02:43.511Z,37.83
2023-05-21T15:05:11.822Z,37.88
2023-05-21T15:07:39.961Z,38.24
2023-05-21T15:10:10.433Z,38.77
2023-05-21T15:12:38.546Z,37.57
2023-05-21T15:15:09.703Z,37.81
2023-05-21T15:17:37.916Z,37.62
2023-05-21T15:20:07.721Z,37.34
2023-05-21T15:22:36.303Z,37.40
2023-05-21T15:25:05.925Z,37.60
2023-05-21T15:27:34.604Z,37.53
2023-05-21T15:30:02.969Z,37.87
2023-05-21T15:32:32.465Z,37.98
2023-05-21T15:35:00.719Z,38.21
2023-05-21T15:37:32.023Z,38.40
2023-05-21T15:40:00.313Z,38.90
2023-05-21T15:42:31.238Z,38.50
2023-05-21T15:44:59.395Z,38.37
2023-05-21T15:47:27.591Z,38.96
2023-05-21T15:49:58.606Z,39.01
2023-05-21T15:52:26.902Z,39.06
2023-05-21T15:54:54.960Z,39.29
2023-05-21T15:57:23.023Z,39.44
2023-05-21T15:59:52.468Z,39.38
2023-05-21T16:02:20.893Z,39.74
2023-05-21T16:04:49.963Z,39.47
2023-05-21T16:07:19.521Z,39.73
2023-05-21T16:09:47.583Z,40.05
2023-05-21T16:12:15.688Z,40.17
2023-05-21T16:14:43.745Z,39.77
2023-05-21T16:17:11.927Z,39.69
2023-05-21T16:19:40.448Z,40.12
2023-05-21T16:22:10.630Z,39.95
2023-05-21T16:24:40.321Z,40.05
2023-05-21T16:27:08.394Z,40.48
2023-05-21T16:29:37.598Z,41.00
2023-05-21T16:32:08.112Z,41.27
2023-05-21T16:34:36.254Z,41.74
2023-05-21T16:37:04.418Z,42.26
2023-05-21T16:39:32.548Z,42.78
2023-05-21T16:42:02.200Z,42.58
2023-05-21T16:44:31.691Z,42.80
2023-05-21T16:47:01.862Z,43.08
2023-05-21T16:49:29.912Z,43.65
2023-05-21T16:51:57.984Z,44.04
2023-05-21T16:54:26.276Z,44.36
2023-05-21T16:56:55.234Z,44.70
2023-05-21T16:59:24.709Z,44.88
2023-05-21T17:01:52.862Z,45.10
2023-05-21T17:04:21.009Z,45.26
2023-05-21T17:06:49.080Z,44.46
2023-05-21T17:09:18.728Z,44.33
2023-05-21T17:11:46.991Z,44.11
2023-05-21T17:14:23.248Z,44.18
2023-05-21T17:17:02.366Z,44.56
2023-05-21T17:19:30.640Z,44.31
2023-05-21T17:21:59.017Z,44.03
2023-05-21T17:24:27.183Z,44.41
2023-05-21T17:26:55.430Z,44.28
2023-05-21T17:29:23.617Z,43.95
2023-05-21T17:31:51.940Z,44.07
2023-05-21T17:34:24.536Z,43.85
2023-05-21T17:36:52.746Z,44.30
2023-05-21T17:39:21.156Z,44.55
2023-05-21T17:41:49.525Z,44.64
2023-05-21T17:44:19.131Z,45.04
2023-05-21T17:46:47.770Z,45.19
2023-05-21T17:49:16.105Z,45.68
2023-05-21T17:51:46.460Z,45.77
2023-05-21T17:54:14.962Z,46.12
2023-05-21T17:56:46.167Z,46.64
2023-05-21T17:59:15.880Z,46.85
2023-05-21T18:01:44.122Z,47.12
2023-05-21T18:04:13.272Z,47.26
2023-05-21T18:06:41.573Z,47.65
2023-05-21T18:09:14.197Z,47.84
2023-05-21T18:11:44.544Z,48.38
2023-05-21T18:14:12.813Z,48.65
2023-05-21T18:16:41.272Z,48.79
2023-05-21T18:19:09.540Z,48.94
2023-05-21T18:21:38.997Z,49.40
2023-05-21T18:24:08.474Z,50.05
2023-05-21T18:26:37.964Z,50.30
2023-05-21T18:29:06.138Z,50.28
2023-05-21T18:31:34.468Z,50.30
2023-05-21T18:34:02.660Z,50.27
2023-05-21T18:36:38.328Z,51.21
2023-05-21T18:39:07.728Z,51.51
2023-05-21T18:41:37.724Z,52.36
2023-05-21T18:44:06.903Z,52.24
2023-05-21T18:46:35.135Z,53.28
2023-05-21T18:49:03.364Z,53.52
2023-05-21T18:51:31.488Z,53.96
2023-05-21T18:53:59.751Z,54.09
2023-05-21T18:56:27.903Z,54.31
2023-05-21T18:58:57.397Z,54.71
2023-05-21T19:01:25.666Z,55.26
2023-05-21T19:03:53.828Z,55.43
2023-05-21T19:06:25.352Z,55.19
2023-05-21T19:08:53.698Z,56.06
2023-05-21T19:11:23.570Z,56.02
2023-05-21T19:13:51.953Z,56.34
2023-05-21T19:16:21.490Z,56.44
2023-05-21T19:18:49.757Z,56.23
2023-05-21T19:21:18.246Z,56.59
2023-05-21T19:23:53.094Z,56.07
2023-05-21T19:26:22.811Z,56.62
2023-05-21T19:28:53.416Z,56.70
2023-05-21T19:31:25.192Z,57.41
2023-05-21T19:33:53.582Z,57.00
2023-05-21T19:36:23.010Z,57.25
2023-05-21T19:38:51.918Z,57.82
2023-05-21T19:41:22.585Z,57.84
2023-05-21T19:43:51.018Z,57.99
2023-05-21T19:46:20.601Z,57.80
2023-05-21T19:48:51.849Z,57.31
2023-05-21T19:51:20.124Z,57.59
2023-05-21T19:53:48.298Z,57.52
2023-05-21T19:56:17.005Z,57.05
2023-05-21T19:58:47.329Z,57.20
2023-05-21T20:01:16.717Z,57.28
2023-05-21T20:03:45.491Z,57.33
2023-05-21T20:06:18.777Z,57.03
2023-05-21T20:08:47.439Z,57.21
2023-05-21T20:11:15.775Z,57.37
2023-05-21T20:13:48.501Z,57.24
2023-05-21T20:16:18.226Z,57.42
2023-05-21T20:18:47.266Z,57.10
2023-05-21T20:21:18.336Z,57.35
2023-05-21T20:23:47.044Z,57.13
2023-05-21T20:26:15.979Z,57.44
2023-05-21T20:28:44.443Z,57.90
2023-05-21T20:31:12.962Z,57.36
2023-05-21T20:33:41.847Z,57.71
2023-05-21T20:36:10.034Z,57.59
2023-05-21T20:38:42.017Z,57.25
2023-05-21T20:41:10.222Z,57.22
2023-05-21T20:43:38.408Z,57.54
2023-05-21T20:46:07.657Z,57.99
2023-05-21T20:48:37.668Z,57.92
2023-05-21T20:51:06.864Z,58.19
2023-05-21T20:53:35.038Z,58.61
2023-05-21T20:56:08.192Z,58.42
2023-05-21T20:58:36.609Z,58.86
2023-05-21T21:01:04.765Z,59.20
2023-05-21T21:03:34.198Z,59.19
2023-05-21T21:06:03.169Z,59.13
2023-05-21T21:08:31.471Z,59.42
2023-05-21T21:10:59.721Z,59.58
2023-05-21T21:13:29.178Z,59.27
2023-05-21T21:15:57.415Z,59.18
2023-05-21T21:18:25.573Z,58.80
2023-05-21T21:20:54.446Z,59.32
2023-05-21T21:23:24.415Z,59.58
2023-05-21T21:25:52.683Z,60.21
2023-05-21T21:28:20.856Z,60.04
2023-05-21T21:30:50.406Z,60.28
2023-05-21T21:33:18.640Z,60.20
2023-05-21T21:35:47.017Z,60.22
2023-05-21T21:38:15.139Z,60.30
2023-05-21T21:40:43.316Z,60.86
2023-05-21T21:43:11.645Z,60.66
2023-05-21T21:45:39.826Z,60.23
2023-05-21T21:48:09.601Z,60.47
2023-05-21T21:50:37.937Z,60.40
2023-05-21T21:53:06.354Z,60.54
2023-05-21T21:55:34.519Z,60.75
2023-05-21T21:58:02.652Z,60.94
2023-05-21T22:00:30.791Z,60.80
2023-05-21T22:02:58.974Z,61.50
2023-05-21T22:05:31.334Z,61.57
2023-05-21T22:07:59.540Z,61.73
2023-05-21T22:10:27.722Z,61.67
2023-05-21T22:12:56.285Z,61.97
2023-05-21T22:15:27.385Z,62.06
2023-05-21T22:17:55.809Z,61.53
2023-05-21T22:20:25.955Z,62.06
2023-05-21T22:22:55.571Z,62.43
2023-05-21T22:25:24.000Z,63.17
2023-05-21T22:27:52.538Z,62.62
2023-05-21T22:30:21.238Z,62.87
2023-05-21T22:32:49.704Z,62.49
2023-05-21T22:35:17.993Z,62.86
2023-05-21T22:37:46.629Z,62.82
2023-05-21T22:40:16.373Z,63.62
2023-05-21T22:42:47.189Z,63.75
2023-05-21T22:45:16.284Z,63.99
2023-05-21T22:47:44.604Z,64.15
2023-05-21T22:50:12.797Z,64.47
2023-05-21T22:52:41.851Z,64.12
2023-05-21T22:55:11.528Z,64.51
2023-05-21T22:57:41.112Z,64.29
2023-05-21T23:00:11.559Z,65.12
2023-05-21T23:02:39.771Z,65.35
2023-05-21T23:05:08.767Z,64.85
2023-05-21T23:07:36.925Z,65.24
2023-05-21T23:10:06.022Z,65.51
2023-05-21T23:12:34.164Z,65.16
2023-05-21T23:15:05.377Z,65.67
2023-05-21T23:17:33.608Z,65.40
2023-05-21T23:20:01.808Z,66.02
2023-05-21T23:22:30.783Z,66.12
2023-05-21T23:24:58.923Z,66.12
2023-05-21T23:27:27.078Z,65.83
2023-05-21T23:29:55.684Z,65.88
2023-05-21T23:32:25.781Z,65.70
2023-05-21T23:34:54.076Z,66.41
2023-05-21T23:37:22.670Z,66.42
2023-05-21T23:39:51.451Z,66.47
2023-05-21T23:42:20.319Z,66.75
2023-05-21T23:44:48.430Z,66.47
2023-05-21T23:47:16.694Z,66.47
2023-05-21T23:49:46.170Z,67.00
2023-05-21T23:52:17.222Z,66.70
2023-05-21T23:54:45.990Z,66.80
2023-05-21T23:57:14.286Z,67.19
2023-05-21T23:59:42.477Z,67.28
